KVIH/VIH METAR and TAF weather

Enter ICAO airport designator
Station Type Date Time Source
KVIH METAR 2021/04/12 01:53 UTC NOAA

KVIH 120153Z AUTO 04003KT 10SM CLR 13/05 A2965 RMK AO2 SLP037 T01330050


Station Type Date Time Source
KVIH Decoded METAR 2021/04/12 01:53 UTC NOAA

ROLLA/VICHY ROLLA NATIONAL, MO, United States (KVIH) 38-08N 91-46W 333M
Apr 11, 2021 - 09:53 PM EDT / 2021.04.12 0153 UTC
Wind: from the NE (040 degrees) at 3 MPH (3 KT):0
Visibility: 10 mile(s):0
Sky conditions: clear
Temperature: 55.9 F (13.3 C)
Dew Point: 41.0 F (5.0 C)
Relative Humidity: 57%
Pressure (altimeter): 29.65 in. Hg (1004 hPa)
ob: KVIH 120153Z AUTO 04003KT 10SM CLR 13/05 A2965 RMK AO2 SLP037 T01330050
cycle: 2

Station Type Date Time Source
KVIH TAF UTC NOAA

Error!

Example: see airport list